CheckWX is a tool to help pilots better visualize weather data.  It is not intended as a substitute for an official pre-flight weather briefing.

18:14:15 UTC

KDYR METAR
Dyersburg Regional Airport
Dyersburg, Tennessee, USA
Current

18 mins ago

KDYR 141756Z AUTO 27007KT 10SM OVC009 07/07 A2981 RMK AO2 CIG 008V012 SLP102 6//// T00720067 10072 20022 50001 PNO $
Observed
Dec-14 @ 17:56 UTC
Wind
  • 270° at 7 KTS
Visibility
10 SM
Flight Rules
IFR
Cloud Levels
  • Overcast at 900' AGL
Temperature
C / 45°F
Dewpoint
C / 45°F
Humidity
100%
Altimeter
29.81" Hg
Pressure
1009.52 hPa
Previous

1 hour ago

KDYR 141656Z AUTO 24010KT 10SM SCT003 OVC009 07/07 A2982 RMK AO2 CIG 006V011 SLP106 T00720072 PNO $
Observed
Dec-14 @ 16:56 UTC
Wind
  • 240° at 10 KTS
Visibility
10 SM
Flight Rules
IFR
Cloud Levels
  • Scattered at 300' AGL
  • Overcast at 900' AGL
Temperature
C / 45°F
Dewpoint
C / 45°F
Humidity
100%
Altimeter
29.82" Hg
Pressure
1009.82 hPa
Previous

2 hours ago

KDYR 141616Z AUTO 00000KT 6SM BR OVC003 06/06 A2982 RMK AO2 PNO $
Observed
Dec-14 @ 16:16 UTC
Visibility
6 SM
Flight Rules
LIFR
Conditions
Mist
Cloud Levels
  • Overcast at 300' AGL
Temperature
C / 43°F
Dewpoint
C / 43°F
Humidity
100%
Altimeter
29.82" Hg
Pressure
1009.82 hPa